Time;durP1;ratioP1;P1;durP2;ratioP2;P2;SDS_P1;SDS_P2;PMS_P1;PMS_P2;Temp;Humidity;BMP_temperature;BMP_pressure;BME280_temperature;BME280_humidity;BME280_pressure;Samples;Min_cycle;Max_cycle;Signal;HPM_P1;HPM_P2
2021/07/29 00:00:58;;;;;;;16.50;12.04;;;;;;;;;;361097;149;857391;-61
2021/07/29 00:01:59;;;;;;;15.79;10.84;;;;;;;;;;360037;149;857268;-61
2021/07/29 00:03:01;;;;;;;15.86;11.74;;;;;;;;;;360525;147;864903;-62
2021/07/29 00:04:03;;;;;;;16.08;12.16;;;;;;;;;;361029;149;857632;-61
2021/07/29 00:05:05;;;;;;;14.60;11.42;;;;;;;;;;361031;149;864828;-61
2021/07/29 00:06:09;;;;;;;14.03;11.36;;;;;;;;;;360286;147;858150;-60
2021/07/29 00:07:11;;;;;;;13.99;11.43;;;;;;;;;;359743;149;857304;-60
2021/07/29 00:08:13;;;;;;;17.79;12.64;;;;;;;;;;359945;148;857776;-60
2021/07/29 00:09:14;;;;;;;15.57;11.07;;;;;;;;;;358274;149;858448;-61
2021/07/29 00:10:17;;;;;;;16.88;10.97;;;;;;;;;;360215;147;858287;-60
2021/07/29 00:11:19;;;;;;;17.04;10.94;;;;;;;;;;359015;147;865811;-59
2021/07/29 00:12:21;;;;;;;14.13;10.86;;;;;;;;;;358326;149;865230;-60
2021/07/29 00:13:23;;;;;;;14.81;11.04;;;;;;;;;;359788;147;858697;-60
2021/07/29 00:14:24;;;;;;;13.23;11.16;;;;;;;;;;361018;147;857377;-59
2021/07/29 00:15:26;;;;;;;13.17;11.02;;;;;;;;;;361086;149;857553;-59
2021/07/29 00:16:31;;;;;;;16.71;11.77;;;;;;;;;;359603;149;857417;-59
2021/07/29 00:19:08;;;;;;;13.32;11.23;;;;;;;;;;357656;148;864819;-59
2021/07/29 00:20:22;;;;;;;17.28;11.29;;;;;;;;;;360581;147;858580;-59
2021/07/29 00:21:23;;;;;;;17.51;10.93;;;;;;;;;;358507;147;858842;-59
2021/07/29 00:22:25;;;;;;;14.26;11.18;;;;;;;;;;359118;149;859157;-59
2021/07/29 00:23:26;;;;;;;16.79;12.04;;;;;;;;;;359365;147;857382;-59
2021/07/29 00:24:28;;;;;;;16.01;11.36;;;;;;;;;;358738;147;857370;-59
2021/07/29 00:25:30;;;;;;;13.29;11.53;;;;;;;;;;359100;149;859128;-59
2021/07/29 00:26:32;;;;;;;16.57;11.99;;;;;;;;;;358789;149;857482;-59
2021/07/29 00:27:34;;;;;;;13.53;10.83;;;;;;;;;;360055;147;858787;-59
2021/07/29 00:28:35;;;;;;;14.94;10.99;;;;;;;;;;360172;148;859422;-59
2021/07/29 00:29:37;;;;;;;15.66;10.59;;;;;;;;;;359751;147;860197;-59
2021/07/29 00:30:39;;;;;;;17.46;11.10;;;;;;;;;;359666;149;857250;-59
2021/07/29 00:31:40;;;;;;;15.97;10.72;;;;;;;;;;360321;147;864855;-60
2021/07/29 00:32:42;;;;;;;17.47;10.85;;;;;;;;;;361183;149;857214;-59
2021/07/29 00:33:44;;;;;;;15.65;11.41;;;;;;;;;;360545;147;864881;-59
2021/07/29 00:34:45;;;;;;;15.85;11.10;;;;;;;;;;358403;147;857255;-59
2021/07/29 00:35:47;;;;;;;13.60;10.35;;;;;;;;;;360862;149;857267;-59
2021/07/29 00:36:48;;;;;;;14.74;11.94;;;;;;;;;;359869;149;857361;-59
2021/07/29 00:37:51;;;;;;;17.06;11.74;;;;;;;;;;360145;147;867157;-59
2021/07/29 00:38:53;;;;;;;13.80;11.75;;;;;;;;;;360476;147;858517;-59
2021/07/29 00:39:55;;;;;;;16.01;10.98;;;;;;;;;;357342;149;857196;-59
2021/07/29 00:40:56;;;;;;;14.71;11.58;;;;;;;;;;360444;148;857900;-59
2021/07/29 00:41:58;;;;;;;17.31;11.54;;;;;;;;;;359603;147;860439;-59
2021/07/29 00:43:00;;;;;;;14.81;11.79;;;;;;;;;;360949;148;857381;-59
2021/07/29 00:44:02;;;;;;;15.71;11.11;;;;;;;;;;359947;149;857234;-59
2021/07/29 00:45:04;;;;;;;16.97;10.62;;;;;;;;;;361030;147;858260;-59
2021/07/29 00:46:06;;;;;;;14.17;10.88;;;;;;;;;;359631;149;859110;-59
2021/07/29 00:47:08;;;;;;;14.74;11.30;;;;;;;;;;358847;149;859212;-59
2021/07/29 00:48:15;;;;;;;16.24;10.69;;;;;;;;;;360370;148;857372;-60
2021/07/29 00:49:17;;;;;;;13.58;10.90;;;;;;;;;;359272;149;857311;-59
2021/07/29 00:50:19;;;;;;;14.99;11.53;;;;;;;;;;359911;149;860986;-59
2021/07/29 00:51:22;;;;;;;15.78;11.32;;;;;;;;;;359513;147;857298;-60
2021/07/29 00:52:23;;;;;;;15.95;11.61;;;;;;;;;;360160;147;857427;-59
2021/07/29 00:53:26;;;;;;;16.51;11.34;;;;;;;;;;360843;149;857339;-59
2021/07/29 00:54:30;;;;;;;16.21;11.97;;;;;;;;;;360704;148;859183;-59
2021/07/29 00:55:32;;;;;;;15.15;12.13;;;;;;;;;;360791;147;857338;-59
2021/07/29 00:56:35;;;;;;;18.50;12.16;;;;;;;;;;358406;149;858872;-59
2021/07/29 00:57:37;;;;;;;16.07;12.32;;;;;;;;;;357978;149;864690;-60
2021/07/29 00:58:38;;;;;;;17.12;12.27;;;;;;;;;;360955;147;857819;-59
2021/07/29 00:59:40;;;;;;;15.79;11.89;;;;;;;;;;360108;149;857160;-59
2021/07/29 01:00:42;;;;;;;16.60;12.29;;;;;;;;;;361107;149;857145;-59
2021/07/29 01:01:43;;;;;;;18.19;13.01;;;;;;;;;;359297;148;866117;-59
2021/07/29 01:02:45;;;;;;;20.92;12.69;;;;;;;;;;360397;147;865680;-59
2021/07/29 01:03:47;;;;;;;16.27;12.29;;;;;;;;;;357190;148;858380;-58
2021/07/29 01:04:48;;;;;;;19.96;12.81;;;;;;;;;;358608;149;857928;-59
2021/07/29 01:05:50;;;;;;;17.83;12.83;;;;;;;;;;360075;147;858829;-59
2021/07/29 01:06:51;;;;;;;15.17;12.59;;;;;;;;;;359999;149;859042;-59
2021/07/29 01:07:53;;;;;;;16.60;11.66;;;;;;;;;;360985;149;867883;-59
2021/07/29 01:09:02;;;;;;;15.04;11.99;;;;;;;;;;359430;149;857232;-59
2021/07/29 01:10:04;;;;;;;16.11;12.01;;;;;;;;;;359383;147;857311;-59
2021/07/29 01:11:06;;;;;;;15.14;11.99;;;;;;;;;;360680;149;857357;-59
2021/07/29 01:12:07;;;;;;;18.86;13.18;;;;;;;;;;360848;149;858371;-59
2021/07/29 01:13:09;;;;;;;14.36;12.21;;;;;;;;;;360347;147;857285;-59
2021/07/29 01:14:11;;;;;;;16.76;12.76;;;;;;;;;;360594;148;865697;-60
2021/07/29 01:15:12;;;;;;;16.83;12.67;;;;;;;;;;360603;149;857308;-59
2021/07/29 01:16:16;;;;;;;16.82;12.88;;;;;;;;;;360152;147;858884;-59
2021/07/29 01:17:17;;;;;;;17.56;12.80;;;;;;;;;;358925;147;857385;-59
2021/07/29 01:18:19;;;;;;;16.54;12.27;;;;;;;;;;357887;149;857337;-59
2021/07/29 01:19:21;;;;;;;17.37;12.87;;;;;;;;;;360125;147;857368;-60
2021/07/29 01:20:26;;;;;;;20.04;12.60;;;;;;;;;;359126;147;857660;-58
2021/07/29 01:21:29;;;;;;;17.59;12.82;;;;;;;;;;358577;149;859980;-60
2021/07/29 01:22:31;;;;;;;17.87;13.25;;;;;;;;;;359595;149;865152;-60
2021/07/29 01:23:33;;;;;;;20.49;13.03;;;;;;;;;;357473;147;858202;-59
2021/07/29 01:24:34;;;;;;;17.55;10.97;;;;;;;;;;360978;149;857624;-60
2021/07/29 01:25:36;;;;;;;18.56;12.74;;;;;;;;;;361049;149;857131;-59
2021/07/29 01:26:39;;;;;;;16.72;12.60;;;;;;;;;;359645;149;857273;-59
2021/07/29 01:27:41;;;;;;;18.71;13.41;;;;;;;;;;360409;147;857862;-58
2021/07/29 01:28:42;;;;;;;17.05;12.46;;;;;;;;;;360146;149;857190;-59
2021/07/29 01:29:45;;;;;;;20.05;11.76;;;;;;;;;;359295;149;857162;-59
2021/07/29 01:30:47;;;;;;;18.87;14.15;;;;;;;;;;359598;147;857292;-59
2021/07/29 01:31:48;;;;;;;19.51;12.19;;;;;;;;;;360220;149;857280;-59
2021/07/29 01:32:50;;;;;;;17.17;12.84;;;;;;;;;;360616;148;857351;-58
2021/07/29 01:33:51;;;;;;;16.90;13.16;;;;;;;;;;361282;147;866504;-58
2021/07/29 01:34:53;;;;;;;19.63;11.86;;;;;;;;;;359179;149;857495;-59
2021/07/29 01:35:54;;;;;;;18.30;13.18;;;;;;;;;;359312;149;857257;-59
2021/07/29 01:36:56;;;;;;;15.04;13.14;;;;;;;;;;360802;149;859320;-59
2021/07/29 01:37:57;;;;;;;20.34;13.86;;;;;;;;;;360344;147;858533;-59
2021/07/29 01:39:00;;;;;;;16.90;12.42;;;;;;;;;;360122;149;858998;-59
2021/07/29 01:40:02;;;;;;;20.09;13.73;;;;;;;;;;359442;149;858516;-59
2021/07/29 01:41:03;;;;;;;15.69;11.87;;;;;;;;;;358899;147;860672;-59
2021/07/29 01:42:05;;;;;;;14.84;11.97;;;;;;;;;;360770;149;859041;-59
2021/07/29 01:43:07;;;;;;;17.81;13.09;;;;;;;;;;359799;148;858221;-61
2021/07/29 01:44:08;;;;;;;21.16;13.59;;;;;;;;;;358576;147;858687;-61
2021/07/29 01:45:10;;;;;;;20.06;14.49;;;;;;;;;;360311;147;857275;-61
2021/07/29 01:46:12;;;;;;;16.34;13.88;;;;;;;;;;361014;149;857270;-59
2021/07/29 01:47:14;;;;;;;18.76;13.92;;;;;;;;;;359994;149;858830;-59
2021/07/29 01:48:15;;;;;;;18.02;13.83;;;;;;;;;;359073;147;857214;-59
2021/07/29 01:49:22;;;;;;;19.14;14.03;;;;;;;;;;359314;149;857280;-59
2021/07/29 01:50:22;;;;;;;20.70;15.20;;;;;;;;;;359597;149;856148;-59
2021/07/29 01:51:24;;;;;;;15.73;13.56;;;;;;;;;;360249;147;856467;-60
2021/07/29 01:52:25;;;;;;;19.31;12.81;;;;;;;;;;361316;149;863556;-59
2021/07/29 01:53:27;;;;;;;20.23;12.29;;;;;;;;;;360723;148;856462;-59
2021/07/29 01:54:28;;;;;;;18.82;13.43;;;;;;;;;;358857;147;856773;-61
2021/07/29 01:55:30;;;;;;;19.19;13.41;;;;;;;;;;360713;147;856545;-59
2021/07/29 01:56:33;;;;;;;19.12;12.77;;;;;;;;;;361316;148;856158;-59
2021/07/29 01:57:35;;;;;;;16.88;13.39;;;;;;;;;;360533;147;863751;-59
2021/07/29 01:58:36;;;;;;;22.21;13.93;;;;;;;;;;360300;147;856386;-59
2021/07/29 01:59:38;;;;;;;15.38;12.12;;;;;;;;;;359828;149;856805;-59
2021/07/29 02:00:42;;;;;;;16.81;12.83;;;;;;;;;;358897;148;856136;-59
2021/07/29 02:01:44;;;;;;;18.01;13.25;;;;;;;;;;360579;147;856245;-59
2021/07/29 02:04:45;;;;;;;18.34;13.79;;;;;;;21.27;65.61;99383.39;374803;142;881452;-59
2021/07/29 02:05:47;;;;;;;19.61;14.39;;;;;;;21.16;65.88;99384.87;363050;145;857302;-59
2021/07/29 02:06:48;;;;;;;18.24;13.89;;;;;;;21.11;65.77;99389.56;365122;144;865727;-60
2021/07/29 02:07:50;;;;;;;17.49;14.14;;;;;;;21.05;65.93;99384.68;361110;146;858958;-60
2021/07/29 02:08:52;;;;;;;18.74;14.59;;;;;;;21.00;66.00;99382.34;362509;145;864761;-60
2021/07/29 02:09:54;;;;;;;20.16;14.18;;;;;;;20.96;66.23;99374.71;363113;147;864696;-60
2021/07/29 02:10:55;;;;;;;24.79;15.01;;;;;;;20.97;66.50;99382.53;363206;148;865080;-60
2021/07/29 02:11:59;;;;;;;21.88;15.14;;;;;;;20.97;66.56;99384.30;363674;145;864645;-59
2021/07/29 02:13:01;;;;;;;21.71;15.34;;;;;;;21.00;66.47;99382.34;362038;144;864796;-59
2021/07/29 02:14:05;;;;;;;23.05;15.98;;;;;;;21.01;66.80;99378.77;360941;149;857403;-59
2021/07/29 02:15:08;;;;;;;21.34;14.99;;;;;;;21.05;66.70;99386.48;362518;146;857294;-60
2021/07/29 02:16:11;;;;;;;20.53;14.54;;;;;;;21.01;66.67;99377.91;362505;145;857212;-59
2021/07/29 02:17:13;;;;;;;21.00;15.59;;;;;;;21.00;67.24;99376.22;363078;147;858188;-59
2021/07/29 02:18:15;;;;;;;21.79;14.29;;;;;;;21.05;67.31;99378.58;365618;146;866523;-60
2021/07/29 02:19:17;;;;;;;20.14;14.62;;;;;;;21.11;67.01;99367.68;361824;144;866455;-60
2021/07/29 02:20:20;;;;;;;21.20;15.37;;;;;;;21.18;66.91;99368.13;362636;145;864776;-60
2021/07/29 02:21:22;;;;;;;22.31;15.25;;;;;;;21.23;66.84;99368.73;363190;148;858070;-59
2021/07/29 02:22:24;;;;;;;26.56;15.46;;;;;;;21.29;66.64;99370.98;361640;146;857815;-59
2021/07/29 02:23:26;;;;;;;23.19;15.25;;;;;;;21.33;66.41;99374.25;359425;147;865056;-59
2021/07/29 02:24:27;;;;;;;18.84;14.76;;;;;;;21.36;66.43;99369.66;359111;149;865577;-60
2021/07/29 02:25:29;;;;;;;21.83;15.57;;;;;;;21.43;66.29;99370.96;355783;148;866039;-59
2021/07/29 02:26:31;;;;;;;18.79;14.65;;;;;;;21.52;66.05;99371.33;356298;147;866306;-60
2021/07/29 02:27:36;;;;;;;20.84;14.77;;;;;;;21.54;65.82;99372.08;356356;149;859025;-59
2021/07/29 02:28:38;;;;;;;27.29;14.22;;;;;;;21.58;66.12;99365.67;357011;147;864832;-59
2021/07/29 02:29:40;;;;;;;22.30;15.59;;;;;;;21.58;66.12;99365.67;358066;147;867998;-60
2021/07/29 02:30:44;;;;;;;19.26;14.83;;;;;;;21.70;65.67;99367.55;356327;147;858471;-59
2021/07/29 02:31:45;;;;;;;20.79;14.92;;;;;;;21.77;65.45;99375.06;356480;149;866582;-59
2021/07/29 02:32:47;;;;;;;19.26;14.91;;;;;;;21.82;65.49;99373.84;357394;147;866155;-59
2021/07/29 02:33:49;;;;;;;17.47;14.51;;;;;;;21.84;65.38;99371.09;357778;147;865681;-60
2021/07/29 02:34:54;;;;;;;16.96;13.89;;;;;;;21.84;65.34;99371.95;356532;150;857296;-59
2021/07/29 02:35:56;;;;;;;20.22;14.47;;;;;;;21.85;65.17;99367.52;354872;148;864720;-60
2021/07/29 02:36:58;;;;;;;21.57;14.61;;;;;;;21.85;65.05;99372.78;354758;147;857252;-60
2021/07/29 02:38:00;;;;;;;19.23;14.76;;;;;;;21.84;64.95;99365.83;358294;150;857441;-60
2021/07/29 02:39:02;;;;;;;24.32;14.87;;;;;;;21.71;64.55;99344.67;357781;150;858268;-59
2021/07/29 02:40:05;;;;;;;18.78;14.49;;;;;;;21.71;64.55;99344.67;357464;148;857162;-59
2021/07/29 02:41:07;;;;;;;21.36;15.79;;;;;;;21.75;64.78;99359.38;356763;147;859353;-59
2021/07/29 02:42:08;;;;;;;26.92;15.71;;;;;;;21.72;65.02;99362.17;357880;150;864814;-60
2021/07/29 02:43:10;;;;;;;20.13;14.82;;;;;;;21.69;65.04;99363.23;357856;148;864817;-60
2021/07/29 02:44:13;;;;;;;18.31;14.42;;;;;;;21.67;65.16;99362.48;355942;147;864746;-59
2021/07/29 02:45:16;;;;;;;25.31;15.30;;;;;;;21.65;65.29;99358.23;356421;147;857893;-59
2021/07/29 02:46:19;;;;;;;20.16;14.29;;;;;;;21.63;65.30;99365.36;360842;147;857428;-59
2021/07/29 02:47:20;;;;;;;19.99;14.76;;;;;;;21.63;65.38;99366.26;357618;147;864822;-60
2021/07/29 02:48:22;;;;;;;21.24;14.97;;;;;;;21.64;65.51;99364.45;355259;148;866593;-60
2021/07/29 02:49:24;;;;;;;19.50;14.39;;;;;;;21.66;65.52;99362.56;355678;150;864902;-60
2021/07/29 02:50:26;;;;;;;21.35;14.83;;;;;;;21.67;65.58;99358.98;357703;148;864881;-60
2021/07/29 02:51:28;;;;;;;20.74;14.86;;;;;;;21.66;65.71;99352.03;357133;147;857446;-59
2021/07/29 02:52:29;;;;;;;17.41;13.89;;;;;;;21.65;65.96;99356.47;358738;150;865381;-60
2021/07/29 02:53:34;;;;;;;23.32;15.14;;;;;;;21.66;65.94;99352.03;359350;148;865104;-60
2021/07/29 02:54:36;;;;;;;19.89;14.52;;;;;;;21.65;65.89;99355.61;357589;147;863834;-58
2021/07/29 02:55:38;;;;;;;19.15;14.17;;;;;;;21.63;66.08;99350.45;356624;150;857357;-59
2021/07/29 02:56:42;;;;;;;18.87;14.25;;;;;;;;;;358454;147;858245;-60
2021/07/29 02:57:43;;;;;;;18.23;13.78;;;;;;;;;;357363;147;864776;-61
2021/07/29 02:58:47;;;;;;;20.21;14.12;;;;;;;;;;357692;147;857214;-60
2021/07/29 02:59:48;;;;;;;20.05;13.96;;;;;;;;;;357989;150;857428;-60
2021/07/29 03:00:51;;;;;;;20.85;14.27;;;;;;;;;;357680;147;859908;-61
2021/07/29 03:01:52;;;;;;;19.11;14.05;;;;;;;;;;358192;147;857306;-60
2021/07/29 03:02:54;;;;;;;19.96;14.21;;;;;;;;;;355201;147;857197;-59
2021/07/29 03:03:55;;;;;;;21.12;13.99;;;;;;;;;;353759;148;857346;-60
2021/07/29 03:04:57;;;;;;;16.44;13.46;;;;;;;;;;354977;149;857270;-60
2021/07/29 03:05:59;;;;;;;18.15;14.11;;;;;;;;;;351791;151;859018;-59
2021/07/29 03:07:00;;;;;;;20.58;14.04;;;;;;;;;;352591;151;858984;-59
2021/07/29 03:08:02;;;;;;;22.36;14.46;;;;;;;;;;347417;151;859096;-61
2021/07/29 03:09:04;;;;;;;22.76;14.00;;;;;;;;;;344235;154;858236;-60
2021/07/29 03:10:06;;;;;;;22.67;14.28;;;;;;;;;;343214;156;864670;-59
2021/07/29 03:11:11;;;;;;;18.05;12.60;;;;;;;;;;339206;154;857442;-59
2021/07/29 03:12:13;;;;;;;22.40;15.06;;;;;;;;;;341171;154;865486;-60
2021/07/29 03:13:14;;;;;;;24.28;15.29;;;;;;;;;;342707;156;858422;-64
2021/07/29 03:14:19;;;;;;;22.05;14.65;;;;;;;;;;343545;154;865548;-61
2021/07/29 03:15:19;;;;;;;23.65;14.53;;;;;;;;;;339769;154;858929;-63
2021/07/29 03:16:21;;;;;;;23.77;13.97;;;;;;;;;;340246;156;857461;-64
2021/07/29 03:17:23;;;;;;;18.58;13.63;;;;;;;;;;342656;156;857606;-62
2021/07/29 03:18:24;;;;;;;18.39;14.56;;;;;;;;;;340113;154;860707;-61
2021/07/29 03:19:28;;;;;;;19.14;14.06;;;;;;;;;;339177;154;860876;-61
2021/07/29 03:20:30;;;;;;;19.39;14.11;;;;;;;;;;339655;156;858452;-61
2021/07/29 03:21:32;;;;;;;20.08;13.52;;;;;;;;;;338973;154;858579;-61
2021/07/29 03:22:33;;;;;;;18.07;13.97;;;;;;;;;;339360;155;866594;-62
2021/07/29 03:23:36;;;;;;;16.68;13.31;;;;;;;;;;344590;156;858960;-63
2021/07/29 03:24:37;;;;;;;20.11;14.00;;;;;;;;;;327888;161;858639;-63
2021/07/29 03:25:39;;;;;;;21.66;14.50;;;;;;;;;;345415;153;858088;-62
2021/07/29 03:26:41;;;;;;;20.52;14.57;;;;;;;;;;353852;149;857326;-62
2021/07/29 03:27:43;;;;;;;20.99;14.27;;;;;;;;;;351284;151;857294;-64
2021/07/29 03:28:44;;;;;;;18.67;13.79;;;;;;;;;;354703;148;858811;-61
2021/07/29 03:29:46;;;;;;;21.21;15.03;;;;;;;;;;352380;149;857286;-63
2021/07/29 03:30:50;;;;;;;19.02;14.03;;;;;;;;;;350626;153;857321;-64
2021/07/29 03:31:51;;;;;;;15.68;13.66;;;;;;;;;;350997;148;857293;-66
2021/07/29 03:32:53;;;;;;;19.62;14.29;;;;;;;;;;353689;149;864577;-61
2021/07/29 03:33:55;;;;;;;20.58;14.04;;;;;;;;;;353951;149;857299;-64
2021/07/29 03:34:56;;;;;;;23.54;13.43;;;;;;;;;;352055;151;858911;-65
2021/07/29 03:35:58;;;;;;;21.52;14.26;;;;;;;;;;354118;148;857610;-67
2021/07/29 03:37:00;;;;;;;18.99;13.55;;;;;;;;;;353069;149;859137;-61
2021/07/29 03:38:02;;;;;;;19.39;14.15;;;;;;;;;;350627;151;858185;-63
2021/07/29 03:39:06;;;;;;;18.31;14.53;;;;;;;;;;353443;151;857778;-62
2021/07/29 03:40:09;;;;;;;21.13;13.69;;;;;;;;;;354287;149;857881;-64
2021/07/29 03:41:11;;;;;;;17.50;14.31;;;;;;;;;;356740;150;864830;-62
2021/07/29 03:42:12;;;;;;;22.35;13.86;;;;;;;;;;356007;148;858042;-64
2021/07/29 03:43:14;;;;;;;20.81;13.46;;;;;;;;;;353377;148;857177;-63
2021/07/29 03:44:16;;;;;;;18.66;13.32;;;;;;;;;;351791;151;858141;-63
2021/07/29 03:45:17;;;;;;;21.06;13.36;;;;;;;;;;353025;151;864871;-64
2021/07/29 03:46:20;;;;;;;18.56;13.54;;;;;;;;;;353011;148;858480;-60
2021/07/29 03:47:21;;;;;;;20.89;14.34;;;;;;;;;;354237;149;858938;-62
2021/07/29 03:48:25;;;;;;;19.49;12.96;;;;;;;;;;352815;151;857402;-63
2021/07/29 03:49:27;;;;;;;20.94;13.38;;;;;;;;;;350414;151;864948;-61
2021/07/29 03:50:30;;;;;;;18.81;12.97;;;;;;;;;;347757;149;864897;-61
2021/07/29 03:51:31;;;;;;;20.17;13.34;;;;;;;;;;355805;151;857398;-64
2021/07/29 03:52:35;;;;;;;17.99;13.07;;;;;;;;;;350701;151;864708;-64
2021/07/29 03:53:36;;;;;;;19.84;14.14;;;;;;;;;;352741;145;856744;-65
2021/07/29 03:54:38;;;;;;;21.29;13.55;;;;;;;;;;354721;150;857339;-65
2021/07/29 03:55:40;;;;;;;20.62;13.79;;;;;;;;;;355659;151;857222;-65
2021/07/29 03:56:43;;;;;;;21.42;13.24;;;;;;;;;;355452;148;865535;-65
2021/07/29 03:57:45;;;;;;;15.59;12.96;;;;;;;;;;354625;148;864651;-65
2021/07/29 03:58:46;;;;;;;21.43;13.01;;;;;;;;;;355180;149;857429;-65
2021/07/29 03:59:48;;;;;;;16.49;12.49;;;;;;;;;;354409;148;857332;-65
2021/07/29 04:00:50;;;;;;;18.31;11.98;;;;;;;;;;354284;149;858304;-65
2021/07/29 04:01:52;;;;;;;20.14;13.55;;;;;;;;;;355640;151;858214;-65
2021/07/29 04:02:54;;;;;;;19.40;13.54;;;;;;;;;;352843;151;859585;-65
2021/07/29 04:03:56;;;;;;;21.68;13.76;;;;;;;;;;348279;151;866101;-65
2021/07/29 04:04:57;;;;;;;20.24;12.83;;;;;;;;;;349454;152;858944;-65
2021/07/29 04:05:59;;;;;;;17.04;13.08;;;;;;;;;;349057;154;857369;-65
2021/07/29 04:07:01;;;;;;;20.00;13.02;;;;;;;;;;349092;151;865033;-65
2021/07/29 04:08:03;;;;;;;19.80;13.34;;;;;;;;;;342068;154;865929;-65
2021/07/29 04:09:04;;;;;;;17.76;13.51;;;;;;;;;;341986;154;857438;-65
2021/07/29 04:10:08;;;;;;;18.83;13.44;;;;;;;;;;349677;151;857460;-65
2021/07/29 04:11:10;;;;;;;21.26;13.70;;;;;;;;;;349106;151;857316;-65
2021/07/29 04:12:11;;;;;;;17.39;13.32;;;;;;;;;;348581;151;857372;-65
2021/07/29 04:13:13;;;;;;;17.82;13.28;;;;;;;;;;348373;151;857293;-65
2021/07/29 04:14:14;;;;;;;18.48;13.32;;;;;;;;;;349329;151;857460;-65
2021/07/29 04:15:16;;;;;;;19.60;13.14;;;;;;;;;;348660;152;858884;-65
2021/07/29 04:16:19;;;;;;;18.13;12.10;;;;;;;;;;349115;154;857597;-65
2021/07/29 04:17:20;;;;;;;16.16;13.64;;;;;;;;;;349387;151;866633;-65
2021/07/29 04:18:22;;;;;;;19.81;13.11;;;;;;;;;;349829;152;859226;-65
2021/07/29 04:19:23;;;;;;;17.46;13.37;;;;;;;;;;349111;154;865993;-65
2021/07/29 04:20:26;;;;;;;19.14;13.22;;;;;;;;;;349146;154;857420;-65
2021/07/29 04:21:28;;;;;;;18.81;12.84;;;;;;;;;;349315;151;859538;-65
2021/07/29 04:22:30;;;;;;;18.46;12.95;;;;;;;;;;349385;151;864782;-65
2021/07/29 04:23:31;;;;;;;15.44;12.65;;;;;;;;;;350262;152;864795;-65
2021/07/29 04:24:33;;;;;;;15.74;12.64;;;;;;;;;;349428;151;865161;-65
2021/07/29 04:25:34;;;;;;;17.31;12.51;;;;;;;;;;348077;152;857451;-66
2021/07/29 04:26:38;;;;;;;16.69;12.91;;;;;;;;;;348626;151;864554;-65
2021/07/29 04:27:40;;;;;;;15.19;12.68;;;;;;;;;;348750;151;857238;-65
2021/07/29 04:28:41;;;;;;;17.81;11.12;;;;;;;;;;348492;152;858141;-65
2021/07/29 04:29:43;;;;;;;16.64;11.74;;;;;;;;;;347701;153;857254;-65
2021/07/29 04:30:45;;;;;;;21.14;11.97;;;;;;;;;;348196;153;864845;-64
2021/07/29 04:31:46;;;;;;;27.35;12.22;;;;;;;;;;348910;151;864925;-64
2021/07/29 04:32:48;;;;;;;18.04;12.37;;;;;;;;;;347725;152;859237;-63
2021/07/29 04:33:52;;;;;;;17.22;11.83;;;;;;;;;;346003;153;858595;-64
2021/07/29 04:34:53;;;;;;;19.69;11.68;;;;;;;;;;349057;151;857581;-64
2021/07/29 04:35:55;;;;;;;22.56;11.46;;;;;;;;;;347359;151;857251;-64
2021/07/29 04:36:57;;;;;;;15.86;11.14;;;;;;;;;;348797;151;864821;-64
2021/07/29 04:37:58;;;;;;;14.63;10.91;;;;;;;;;;349059;152;864903;-64
2021/07/29 04:39:02;;;;;;;16.66;11.00;;;;;;;;;;349282;152;857318;-67
2021/07/29 04:40:04;;;;;;;15.45;10.78;;;;;;;;;;347192;151;864880;-64
2021/07/29 04:41:06;;;;;;;14.83;10.24;;;;;;;;;;348591;154;858775;-64
2021/07/29 04:42:08;;;;;;;17.80;11.19;;;;;;;;;;348321;151;859076;-65
2021/07/29 04:43:10;;;;;;;17.11;11.31;;;;;;;;;;348572;151;857504;-64
2021/07/29 04:44:12;;;;;;;17.64;10.73;;;;;;;;;;348528;154;857247;-65
2021/07/29 04:45:14;;;;;;;17.77;11.72;;;;;;;;;;351641;152;857289;-65
2021/07/29 04:46:17;;;;;;;19.97;11.09;;;;;;;;;;347081;152;858771;-64
2021/07/29 04:47:18;;;;;;;21.05;11.46;;;;;;;;;;351600;151;858943;-65
2021/07/29 04:48:20;;;;;;;17.91;11.11;;;;;;;;;;343352;154;857323;-65
2021/07/29 04:49:23;;;;;;;17.65;10.72;;;;;;;;;;350530;151;857555;-65
2021/07/29 04:50:25;;;;;;;20.21;10.52;;;;;;;;;;347487;152;857510;-65
2021/07/29 04:51:27;;;;;;;19.61;11.43;;;;;;;;;;349198;151;864611;-64
2021/07/29 04:52:29;;;;;;;18.19;10.74;;;;;;;;;;349462;152;857219;-64
2021/07/29 04:53:31;;;;;;;17.93;11.21;;;;;;;;;;350579;151;857541;-64
2021/07/29 04:54:32;;;;;;;19.35;11.35;;;;;;;;;;344178;154;859146;-64
2021/07/29 04:55:34;;;;;;;19.94;10.36;;;;;;;;;;339251;154;857428;-64
2021/07/29 04:56:36;;;;;;;19.71;10.84;;;;;;;;;;342147;154;865703;-64
2021/07/29 04:57:38;;;;;;;17.38;10.71;;;;;;;;;;339742;154;857332;-64
2021/07/29 04:58:39;;;;;;;16.47;11.07;;;;;;;;;;339945;154;857278;-64
2021/07/29 04:59:41;;;;;;;16.13;10.36;;;;;;;;;;339209;154;859305;-64
2021/07/29 05:00:44;;;;;;;16.67;10.65;;;;;;;;;;341674;154;864637;-64
2021/07/29 05:01:45;;;;;;;20.36;10.91;;;;;;;;;;344154;154;857377;-64
2021/07/29 05:02:47;;;;;;;17.04;10.83;;;;;;;;;;340086;154;865921;-64
2021/07/29 05:03:49;;;;;;;16.99;11.12;;;;;;;;;;337062;157;859395;-64
2021/07/29 05:04:50;;;;;;;17.09;10.91;;;;;;;;;;335658;157;857412;-64
2021/07/29 05:05:52;;;;;;;18.35;11.05;;;;;;;;;;340155;154;857370;-65
2021/07/29 05:06:54;;;;;;;18.87;11.17;;;;;;;;;;343172;154;857287;-64
2021/07/29 05:07:55;;;;;;;12.90;10.31;;;;;;;;;;342589;154;857410;-64
2021/07/29 05:08:57;;;;;;;12.57;9.61;;;;;;;;;;346132;154;857333;-65
2021/07/29 05:09:59;;;;;;;12.42;10.04;;;;;;;;;;346883;154;859063;-64
2021/07/29 05:11:04;;;;;;;22.76;10.59;;;;;;;;;;342374;154;858354;-64
2021/07/29 05:12:06;;;;;;;15.39;10.28;;;;;;;;;;341906;157;864801;-64
2021/07/29 05:13:07;;;;;;;14.37;10.24;;;;;;;;;;342599;157;859076;-64
2021/07/29 05:14:09;;;;;;;15.26;10.05;;;;;;;;;;344192;154;857392;-64
2021/07/29 05:15:11;;;;;;;12.85;10.30;;;;;;;;;;340766;154;857434;-64
2021/07/29 05:16:13;;;;;;;13.28;10.06;;;;;;;;;;342200;157;859403;-64
2021/07/29 05:17:15;;;;;;;13.46;9.84;;;;;;;;;;344231;154;864959;-64
2021/07/29 05:18:16;;;;;;;11.76;9.99;;;;;;;;;;342171;155;857364;-64
2021/07/29 05:19:18;;;;;;;15.11;10.06;;;;;;;;;;341811;157;857361;-64
2021/07/29 05:20:21;;;;;;;11.62;9.88;;;;;;;;;;341395;154;858296;-64
2021/07/29 05:21:23;;;;;;;15.25;9.83;;;;;;;;;;342451;154;859170;-64
2021/07/29 05:22:24;;;;;;;11.76;9.84;;;;;;;;;;342709;154;859104;-64
2021/07/29 05:23:26;;;;;;;13.85;9.84;;;;;;;;;;346290;152;859341;-64
2021/07/29 05:24:27;;;;;;;12.10;9.10;;;;;;;;;;343158;154;859830;-64
2021/07/29 05:25:31;;;;;;;13.48;9.73;;;;;;;;;;341613;154;857547;-64
2021/07/29 05:26:34;;;;;;;13.62;9.92;;;;;;;;;;341674;154;857430;-65
2021/07/29 05:27:35;;;;;;;12.20;9.57;;;;;;;;;;342723;154;865960;-64
2021/07/29 05:28:37;;;;;;;11.94;8.91;;;;;;;;;;343163;154;857404;-64
2021/07/29 05:29:38;;;;;;;16.90;9.95;;;;;;;;;;339220;154;857271;-65
2021/07/29 05:30:41;;;;;;;13.59;10.03;;;;;;;;;;339499;154;858956;-65
2021/07/29 05:31:42;;;;;;;17.06;9.93;;;;;;;;;;342142;154;857396;-65
2021/07/29 05:32:44;;;;;;;14.49;9.71;;;;;;;;;;343429;154;857558;-65
2021/07/29 05:33:45;;;;;;;15.97;9.99;;;;;;;;;;343778;154;858043;-65
2021/07/29 05:34:47;;;;;;;12.20;9.54;;;;;;;;;;340236;155;863518;-65
2021/07/29 05:35:48;;;;;;;11.89;9.18;;;;;;;;;;343544;154;860147;-65
2021/07/29 05:36:50;;;;;;;11.14;8.92;;;;;;;;;;344383;155;859334;-64
2021/07/29 05:37:52;;;;;;;12.38;9.30;;;;;;;;;;342408;155;866279;-64
2021/07/29 05:38:53;;;;;;;18.52;9.23;;;;;;;;;;342684;154;857306;-64
2021/07/29 05:39:55;;;;;;;16.89;9.80;;;;;;;;;;341660;156;864494;-64
2021/07/29 05:41:00;;;;;;;17.31;9.49;;;;;;;;;;341747;157;864970;-64
2021/07/29 05:42:02;;;;;;;14.19;9.37;;;;;;;;;;343060;154;865446;-64
2021/07/29 05:43:03;;;;;;;12.32;9.41;;;;;;;;;;341281;154;857401;-64
2021/07/29 05:44:05;;;;;;;15.01;8.88;;;;;;;;;;339280;155;865007;-64
2021/07/29 05:45:07;;;;;;;14.94;8.96;;;;;;;;;;342083;154;857544;-65
2021/07/29 05:46:09;;;;;;;11.82;8.86;;;;;;;;;;342868;154;859911;-65
2021/07/29 05:47:11;;;;;;;13.87;9.61;;;;;;;;;;341881;157;865727;-65